Sonora, TX

3:52 AM CST on February 07, 2016 (GMT -0600)
Sonora

Weather History for KSOA - February, 2013

Change the Weather History Date:

Friday, February 15, 2013

  Actual Average (KSJT) Record (KSJT)
Temperature  
Mean Temperature 42 °F 50 °F  
Max Temperature 53 °F 63 °F 87 °F (2000)
Min Temperature 32 °F 37 °F 16 °F (1909)
Degree Days  
Heating Degree Days 22 15  
Month to date heating degree days 243  
Since 1 July heating degree days 1787  
Cooling Degree Days 0 0  
Month to date cooling degree days 0  
Year to date cooling degree days 1  
Moisture  
Dew Point 29 °F    
Average Humidity 56    
Maximum Humidity 75    
Minimum Humidity 43    
Precipitation  
Precipitation 0.00 in 0.05 in 0.74 in (1989)
Month to date precipitation 0.68  
Year to date precipitation 1.61  
Snow  
Snow 0.00 in 0.00 in 0.00 in ()
Month to date snowfall 0.2  
Since 1 July snowfall 2.0  
Snow Depth -    
Sea Level Pressure  
Sea Level Pressure 30.30 in    
Wind  
Wind Speed 8 mph (NNE)    
Max Wind Speed 21 mph    
Max Gust Speed 26 mph    
Visibility 10 miles    
Events      
T = Trace of Precipitation, MM = Missing Value Source: NWS Daily Summary

Daily Weather History Graph

Daily Weather History Graph

Search for Another Location

Airport or City:

Trip Planner

Search our weather history database for the weather conditions in past years. The results will help you decide how hot, cold, wet, or windy it might be!

Date:

Astronomy

Feb. 15, 2013 Rise Set
Actual Time 7:22 AM CST 6:30 PM CST
Civil Twilight 6:58 AM CST 6:55 PM CST
Nautical Twilight 6:30 AM CST 7:23 PM CST
Astronomical Twilight 6:02 AM CST 7:51 PM CST
Moon 10:27 AM CST (2/15) No Moon Set
Length of Visible Light 11h 57m
Length of Day
11h 08m
Waxing Crescent, 30% of the Moon is Illuminated
Feb 15
Waxing Crescent
Feb 17
First Quarter
Feb 25
Full
Mar 4
Last Quarter
Mar 11
New

Hourly Weather History & Observations

Time (CST) Temp. Windchill Dew Point Humidity Pressure Visibility Wind Dir Wind Speed Gust Speed Precip Events Conditions
12:15 AM 33.8 °F - 17.6 °F 52% 30.10 in 10.0 mi Calm Calm - N/A   Clear
12:35 AM 33.8 °F 30.8 °F 17.6 °F 52% 30.11 in 10.0 mi NNE 3.5 mph - N/A   Clear
12:55 AM 32.0 °F - 17.6 °F 55% 30.11 in 10.0 mi Calm Calm - N/A   Clear
1:15 AM 32.0 °F - 17.6 °F 55% 30.11 in 10.0 mi Calm Calm - N/A   Clear
1:35 AM 32.0 °F - 17.6 °F 55% 30.11 in 10.0 mi Calm Calm - N/A   Clear
1:55 AM 32.0 °F - 17.6 °F 55% 30.12 in 10.0 mi Calm Calm - N/A   Clear
2:15 AM 32.0 °F - 17.6 °F 55% 30.13 in 10.0 mi Calm Calm - N/A   Clear
2:35 AM 32.0 °F - 17.6 °F 55% 30.13 in 10.0 mi Calm Calm - N/A   Clear
2:55 AM 33.8 °F 24.8 °F 19.4 °F 56% 30.15 in 10.0 mi North 12.7 mph - N/A   Clear
3:15 AM 39.2 °F 34.2 °F 24.8 °F 56% 30.17 in 10.0 mi NNE 6.9 mph - N/A   Clear
3:35 AM 42.8 °F 37.0 °F 26.6 °F 53% 30.18 in 10.0 mi North 10.4 mph - N/A   Clear
3:55 AM 42.8 °F 38.0 °F 28.4 °F 57% 30.20 in 10.0 mi NNE 8.1 mph - N/A   Clear
4:15 AM 42.8 °F 35.8 °F 30.2 °F 61% 30.20 in 10.0 mi NNE 13.8 mph - N/A   Clear
4:35 AM 42.8 °F 36.2 °F 32.0 °F 66% 30.21 in 10.0 mi North 12.7 mph 20.7 mph N/A   Clear
4:55 AM 42.8 °F 36.6 °F 32.0 °F 66% 30.22 in 10.0 mi NNE 11.5 mph 16.1 mph N/A   Clear
5:15 AM 42.8 °F 36.6 °F 32.0 °F 66% 30.23 in 10.0 mi NNE 11.5 mph - N/A   Clear
5:35 AM 42.8 °F 35.1 °F 32.0 °F 66% 30.24 in 10.0 mi NNE 16.1 mph 19.6 mph N/A   Clear
5:55 AM 42.8 °F 35.8 °F 32.0 °F 66% 30.24 in 10.0 mi NNE 13.8 mph - N/A   Clear
6:15 AM 41.0 °F 33.5 °F 32.0 °F 70% 30.25 in 10.0 mi NNE 13.8 mph 18.4 mph N/A   Clear
6:35 AM 41.0 °F 34.3 °F 32.0 °F 70% 30.26 in 10.0 mi NNE 11.5 mph - N/A   Clear
6:55 AM 41.0 °F 33.9 °F 32.0 °F 70% 30.27 in 10.0 mi North 12.7 mph - N/A   Clear
7:15 AM 39.2 °F 31.2 °F 32.0 °F 75% 30.28 in 10.0 mi North 13.8 mph 21.9 mph N/A   Clear
7:35 AM 39.2 °F 31.6 °F 32.0 °F 75% 30.29 in 10.0 mi North 12.7 mph - N/A   Partly Cloudy
7:55 AM 41.0 °F 32.8 °F 32.0 °F 70% 30.29 in 10.0 mi NNE 16.1 mph - N/A   Mostly Cloudy
8:15 AM 41.0 °F 32.8 °F 32.0 °F 70% 30.30 in 10.0 mi North 16.1 mph 21.9 mph N/A   Scattered Clouds
8:35 AM 42.8 °F 35.1 °F 32.0 °F 66% 30.31 in 10.0 mi NNE 16.1 mph 20.7 mph N/A   Partly Cloudy
8:55 AM 42.8 °F 35.1 °F 32.0 °F 66% 30.32 in 10.0 mi NNE 16.1 mph - N/A   Clear
9:15 AM 44.6 °F 36.9 °F 33.8 °F 66% 30.32 in 10.0 mi NNE 18.4 mph - N/A   Clear
9:35 AM 44.6 °F 36.4 °F 33.8 °F 66% 30.32 in 10.0 mi NNE 20.7 mph 24.2 mph N/A   Clear
9:55 AM 46.4 °F 39.5 °F 33.8 °F 62% 30.33 in 10.0 mi NE 17.3 mph 26.5 mph N/A   Clear
10:15 AM 46.4 °F 39.8 °F 33.8 °F 62% 30.33 in 10.0 mi NNE 16.1 mph - N/A   Clear
10:35 AM 48.2 °F - 33.8 °F 58% 30.33 in 10.0 mi NNE 18.4 mph 23.0 mph N/A   Clear
10:55 AM 48.2 °F - 33.8 °F 58% 30.34 in 10.0 mi NNE 17.3 mph 21.9 mph N/A   Clear
11:15 AM 50.0 °F - 33.8 °F 54% 30.34 in 10.0 mi NNE 15.0 mph 21.9 mph N/A   Clear
11:35 AM 50.0 °F - 33.8 °F 54% 30.34 in 10.0 mi NNE 16.1 mph 23.0 mph N/A   Clear
11:55 AM 51.8 °F - 33.8 °F 50% 30.34 in 10.0 mi NE 13.8 mph 23.0 mph N/A   Clear
12:15 PM 51.8 °F - 33.8 °F 50% 30.33 in 10.0 mi NNE 15.0 mph 20.7 mph N/A   Clear
12:35 PM 51.8 °F - 33.8 °F 50% 30.33 in 10.0 mi NE 10.4 mph - N/A   Clear
12:55 PM 51.8 °F - 33.8 °F 50% 30.31 in 10.0 mi NE 13.8 mph 18.4 mph N/A   Clear
1:15 PM 53.6 °F - 33.8 °F 47% 30.30 in 10.0 mi NE 15.0 mph 19.6 mph N/A   Partly Cloudy
1:35 PM 53.6 °F - 33.8 °F 47% 30.29 in 10.0 mi NE 16.1 mph - N/A   Partly Cloudy
1:55 PM 53.6 °F - 33.8 °F 47% 30.28 in 10.0 mi NNE 13.8 mph 20.7 mph N/A   Scattered Clouds
2:15 PM 53.6 °F - 33.8 °F 47% 30.28 in 10.0 mi NE 11.5 mph 17.3 mph N/A   Mostly Cloudy
2:35 PM 53.6 °F - 33.8 °F 47% 30.28 in 10.0 mi NNE 13.8 mph 19.6 mph N/A   Mostly Cloudy
2:55 PM 53.6 °F - 33.8 °F 47% 30.28 in 10.0 mi NNE 13.8 mph - N/A   Mostly Cloudy
3:15 PM 53.6 °F - 33.8 °F 47% 30.28 in 10.0 mi NNE 17.3 mph - N/A   Mostly Cloudy
3:35 PM 53.6 °F - 33.8 °F 47% 30.28 in 10.0 mi NNE 13.8 mph 18.4 mph N/A   Mostly Cloudy
3:55 PM 53.6 °F - 33.8 °F 47% 30.29 in 10.0 mi North 13.8 mph 17.3 mph N/A   Mostly Cloudy
4:15 PM 53.6 °F - 33.8 °F 47% 30.29 in 10.0 mi NNE 11.5 mph 18.4 mph N/A   Mostly Cloudy
4:35 PM 53.6 °F - 32.0 °F 44% 30.30 in 10.0 mi NNE 10.4 mph - N/A   Mostly Cloudy
4:55 PM 51.8 °F - 32.0 °F 47% 30.30 in 10.0 mi NNE 15.0 mph - N/A   Overcast
5:15 PM 51.8 °F - 32.0 °F 47% 30.31 in 10.0 mi NNE 15.0 mph 20.7 mph N/A   Mostly Cloudy
5:35 PM 51.8 °F - 32.0 °F 47% 30.32 in 10.0 mi NNE 12.7 mph - N/A   Overcast
5:55 PM 50.0 °F - 32.0 °F 50% 30.33 in 10.0 mi NNE 11.5 mph - N/A   Overcast
6:15 PM 50.0 °F - 32.0 °F 50% 30.33 in 10.0 mi NNE 10.4 mph - N/A   Overcast
6:35 PM 48.2 °F - 32.0 °F 54% 30.34 in 10.0 mi NNE 10.4 mph - N/A   Overcast
6:55 PM 48.2 °F - 32.0 °F 54% 30.36 in 10.0 mi NNE 8.1 mph - N/A   Overcast
7:15 PM 48.2 °F - 32.0 °F 54% 30.36 in 10.0 mi NNE 8.1 mph - N/A   Mostly Cloudy
7:35 PM 46.4 °F 42.9 °F 32.0 °F 57% 30.37 in 10.0 mi NNE 6.9 mph - N/A   Partly Cloudy
7:55 PM 46.4 °F 41.1 °F 30.2 °F 53% 30.39 in 10.0 mi NNE 11.5 mph - N/A   Clear
8:15 PM 44.6 °F 38.4 °F 26.6 °F 49% 30.41 in 10.0 mi North 12.7 mph - N/A   Clear
8:35 PM 44.6 °F 38.8 °F 23.0 °F 43% 30.41 in 10.0 mi NNE 11.5 mph - N/A   Clear
8:55 PM 42.8 °F 37.0 °F 23.0 °F 46% 30.42 in 10.0 mi NNE 10.4 mph - N/A   Clear
9:15 PM 42.8 °F 38.6 °F 23.0 °F 46% 30.43 in 10.0 mi NNE 6.9 mph - N/A   Clear
9:35 PM 41.0 °F - 23.0 °F 49% 30.43 in 10.0 mi Calm Calm - N/A   Clear
9:55 PM 39.2 °F - 23.0 °F 52% 30.43 in 10.0 mi Calm Calm - N/A   Clear
10:15 PM 39.2 °F 35.9 °F 23.0 °F 52% 30.44 in 10.0 mi North 4.6 mph - N/A   Clear
10:35 PM 37.4 °F 33.8 °F 23.0 °F 56% 30.44 in 10.0 mi North 4.6 mph - N/A   Clear
10:55 PM 35.6 °F - 23.0 °F 60% 30.45 in 10.0 mi Calm Calm - N/A   Clear
11:15 PM 35.6 °F - 23.0 °F 60% 30.45 in 10.0 mi Calm Calm - N/A   Clear
11:35 PM 33.8 °F - 21.2 °F 60% 30.45 in 10.0 mi Calm Calm - N/A   Clear
11:55 PM 32.0 °F - 21.2 °F 64% 30.44 in 10.0 mi Calm Calm - N/A   Clear